Map

Track Data

SID SEASON NUMBER BASIN SUBBASIN NAME ISO_TIME NATURE LAT LON WMO_WIND WMO_PRES WMO_AGENCY TRACK_TYPE DIST2LAND LANDFALL IFLAG USA_AGENCY USA_ATCF_ID USA_LAT USA_LON USA_RECORD USA_STATUS USA_WIND USA_PRES USA_SSHS USA_R34_NE USA_R34_SE USA_R34_SW USA_R34_NW USA_R50_NE USA_R50_SE USA_R50_SW USA_R50_NW USA_R64_NE USA_R64_SE USA_R64_SW USA_R64_NW USA_POCI USA_ROCI USA_RMW USA_EYE TOKYO_LAT TOKYO_LON TOKYO_GRADE TOKYO_WIND TOKYO_PRES TOKYO_R50_DIR TOKYO_R50_LONG TOKYO_R50_SHORT TOKYO_R30_DIR TOKYO_R30_LONG TOKYO_R30_SHORT TOKYO_LAND CMA_LAT CMA_LON CMA_CAT CMA_WIND CMA_PRES HKO_LAT HKO_LON HKO_CAT HKO_WIND HKO_PRES NEWDELHI_LAT NEWDELHI_LON NEWDELHI_GRADE NEWDELHI_WIND NEWDELHI_PRES NEWDELHI_CI NEWDELHI_DP NEWDELHI_POCI REUNION_LAT REUNION_LON REUNION_TYPE REUNION_WIND REUNION_PRES REUNION_TNUM REUNION_CI REUNION_RMW REUNION_R34_NE REUNION_R34_SE REUNION_R34_SW REUNION_R34_NW REUNION_R50_NE REUNION_R50_SE REUNION_R50_SW REUNION_R50_NW REUNION_R64_NE REUNION_R64_SE REUNION_R64_SW REUNION_R64_NW BOM_LAT BOM_LON BOM_TYPE BOM_WIND BOM_PRES BOM_TNUM BOM_CI BOM_RMW BOM_R34_NE BOM_R34_SE BOM_R34_SW BOM_R34_NW BOM_R50_NE BOM_R50_SE BOM_R50_SW BOM_R50_NW BOM_R64_NE BOM_R64_SE BOM_R64_SW BOM_R64_NW BOM_ROCI BOM_POCI BOM_EYE BOM_POS_METHOD BOM_PRES_METHOD NADI_LAT NADI_LON NADI_CAT NADI_WIND NADI_PRES WELLINGTON_LAT WELLINGTON_LON WELLINGTON_WIND WELLINGTON_PRES DS824_LAT DS824_LON DS824_STAGE DS824_WIND DS824_PRES TD9636_LAT TD9636_LON TD9636_STAGE TD9636_WIND TD9636_PRES TD9635_LAT TD9635_LON TD9635_WIND TD9635_PRES TD9635_ROCI NEUMANN_LAT NEUMANN_LON NEUMANN_CLASS NEUMANN_WIND NEUMANN_PRES MLC_LAT MLC_LON MLC_CLASS MLC_WIND MLC_PRES USA_GUST BOM_GUST BOM_GUST_PER REUNION_GUST REUNION_GUST_PER USA_SEAHGT USA_SEARAD_NE USA_SEARAD_SE USA_SEARAD_SW USA_SEARAD_NW STORM_SPEED STORM_DIR
1965359S09101 1966 124 SI WA CAROL-DAISY 1965-12-25 00:00:00 NR -8.80000 100.900 main 519 519 O_____________ jtwc_sh SH071966 -8.80000 100.900 -1 3 250
1965359S09101 1966 124 SI WA CAROL-DAISY 1965-12-25 03:00:00 NR -8.85517 100.744 main 541 541 P_____________ SH071966 -8.92526 100.373 -1 5 253
1965359S09101 1966 124 SI WA CAROL-DAISY 1965-12-25 04:00:00 NR -8.89324 100.590 main 547 547 P_________O___ SH071966 -8.95822 100.224 -1 -9.00000 100.000 1 10 8 256
1965359S09101 1966 124 SI WA CAROL-DAISY 1965-12-25 06:00:00 TS -8.94812 100.367 main 560 560 O________OP___ jtwc_sh SH081966 -9.00000 100.000 10 -1 -9.00000 100.000 TC 10 -9.00368 99.9437 1 10 6 257
1965359S09101 1966 124 SI WA CAROL-DAISY 1965-12-25 09:00:00 TS -9.00040 100.135 main 588 588 P________PP___ SH081966 -8.99988 99.8699 10 -1 -8.97998 99.9300 TC 10 -9.01408 99.8491 1 10 5 259
1965359S09101 1966 124 SI WA CAROL-DAISY 1965-12-25 10:00:00 TS -9.01329 100.040 1005 bom main 595 595 P_____O__PP___ SH081966 -8.99496 99.8523 10 -1 -9.00000 100.000 1005 -8.98023 99.8963 TC 10 -9.01995 99.8125 1 10 5 259
1965359S09101 1966 124 SI WA CAROL-DAISY 1965-12-25 12:00:00 TS -9.04519 99.9000 main 602 602 O_____P__OP___ jtwc_sh SH081966 -9.00000 99.8000 10 -1 -9.02305 99.8436 1005 -9.00000 99.8000 TC 10 -9.03700 99.7284 1 10 5 254
1965359S09101 1966 124 SI WA CAROL-DAISY 1965-12-25 15:00:00 TS -9.12079 99.6712 main 624 624 P_____P__PP___ SH081966 -9.08502 99.5725 10 -1 -9.07448 99.5922 1005 -9.08502 99.5725 TC 10 -9.07994 99.5661 1 10 5 252
1965359S09101 1966 124 SI WA CAROL-DAISY 1965-12-25 16:00:00 TS -9.14971 99.5829 1005 bom main 631 631 P_____O__PO___ SH081966 -9.12248 99.4830 10 -1 -9.10000 99.5000 1005 -9.12248 99.4830 TC 10 -9.10000 99.5000 1 10 6 251
1965359S09101 1966 124 SI WA CAROL-DAISY 1965-12-25 18:00:00 TS -9.21599 99.3995 main 653 653 O_____P__OP___ jtwc_sh SH081966 -9.20000 99.3000 10 -1 -9.16489 99.3018 1004 -9.20000 99.3000 TC 10 -9.15001 99.3478 1 10 6 250
1965359S09101 1966 124 SI WA CAROL-DAISY 1965-12-25 19:00:00 TS -9.24749 99.3057 1004 bom main 659 659 P_____O__PP___ SH081966 -9.23069 99.2219 10 -1 -9.20000 99.2000 1004 -9.23069 99.2219 TC 10 -9.18001 99.2624 1 10 6 251
1965359S09101 1966 124 SI WA CAROL-DAISY 1965-12-25 21:00:00 TS -9.31146 99.1171 main 682 682 P_____P__PP___ SH081966 -9.29245 99.0650 10 -1 -9.25876 99.0000 1004 -9.29245 99.0650 TC 10 -9.25000 99.0755 1 10 6 251
1965359S09101 1966 124 SI WA CAROL-DAISY 1965-12-25 22:00:00 TS -9.34653 99.0180 1004 bom main 689 689 P_____O__PP___ SH081966 -9.32538 98.9824 10 -1 -9.30000 98.9000 1004 -9.32538 98.9824 TC 10 -9.28999 98.9748 1 10 6 248
1965359S09101 1966 124 SI WA CAROL-DAISY 1965-12-26 00:00:00 TS -9.43082 98.8231 main 711 711 O_____P__OP___ jtwc_sh SH081966 -9.40000 98.8000 10 -1 -9.43580 98.7000 1003 -9.40000 98.8000 TC 10 -9.37997 98.7616 1 10 6 246
1965359S09101 1966 124 SI WA CAROL-DAISY 1965-12-26 01:00:00 TS -9.47328 98.7252 1003 bom main 727 727 P_____O__PP___ SH081966 -9.43904 98.6974 10 -1 -9.50000 98.6000 1003 -9.43904 98.6974 TC 10 -9.42997 98.6498 1 10 6 247
1965359S09101 1966 124 SI WA CAROL-DAISY 1965-12-26 03:00:00 TS -9.55513 98.5242 main 750 750 P_____P__PP___ SH081966 -9.52748 98.4724 10 -1 -9.56419 98.4000 1002 -9.52748 98.4724 TC 10 -9.53998 98.4186 1 10 7 247
1965359S09101 1966 124 SI WA CAROL-DAISY 1965-12-26 04:00:00 TS -9.60060 98.4209 1002 bom main 757 757 P_____O__PO___ SH081966 -9.57874 98.3520 10 -1 -9.60000 98.3000 1002 -9.57874 98.3520 TC 10 -9.60000 98.3000 1 10 7 244
1965359S09101 1966 124 SI WA CAROL-DAISY 1965-12-26 06:00:00 TS -9.70814 98.2101 main 780 780 O_____P__OP___ jtwc_sh SH081966 -9.70000 98.1000 10 -1 -9.72559 98.1038 1001 -9.70000 98.1000 TC 10 -9.71924 98.0723 1 12 7 242
1965359S09101 1966 124 SI WA CAROL-DAISY 1965-12-26 07:00:00 TS -9.76958 98.1009 1001 bom main 795 795 P_____O__PP___ SH081966 -9.77190 97.9724 11 -1 -9.80000 98.0000 1001 -9.77190 97.9724 TC 11 -9.78399 97.9546 1 13 8 240
1965359S09101 1966 124 SI WA CAROL-DAISY 1965-12-26 09:00:00 TS -9.90287 97.8702 main 818 818 P_____P__PP___ SH081966 -9.93498 97.7075 15 -1 -9.93974 97.7649 1000 -9.93498 97.7075 TC 15 -9.92318 97.7119 1 16 8 239
1965359S09101 1966 124 SI WA CAROL-DAISY 1965-12-26 12:00:00 TS -10.1257 97.4980 main 864 864 O_____P__OP___ jtwc_sh SH081966 -10.2000 97.3000 20 -1 -10.1643 97.3656 1000 -10.2000 97.3000 TC 20 -10.1544 97.3318 1 20 9 239
1965359S09101 1966 124 SI WA CAROL-DAISY 1965-12-26 15:00:00 TS -10.3580 97.1019 main 918 918 P_____P__PP___ SH081966 -10.4425 96.8999 22 -1 -10.4116 96.9411 1000 -10.4425 96.8999 TC 22 -10.4100 96.9353 1 23 9 239
1965359S09101 1966 124 SI WA CAROL-DAISY 1965-12-26 16:00:00 TS -10.4400 96.9657 1000 bom main 925 925 P_____O__PO___ SH081966 -10.5254 96.7666 23 -1 -10.5000 96.8000 1000 -10.5254 96.7666 TC 23 -10.5000 96.8000 1 25 10 238
1965359S09101 1966 124 SI WA CAROL-DAISY 1965-12-26 18:00:00 TS -10.6129 96.6918 main 963 963 O_____P__OP___ jtwc_sh SH081966 -10.7000 96.5000 25 -1 -10.6873 96.5499 999 -10.7000 96.5000 TC 25 -10.6908 96.5151 1 23 10 236
1965359S09101 1966 124 SI WA CAROL-DAISY 1965-12-26 21:00:00 TS -10.8915 96.2716 main 1017 1017 P_____P__PP___ SH081966 -10.9924 96.1000 22 -1 -10.9881 96.1698 998 -10.9924 96.1000 TC 22 -10.9961 96.0749 1 20 10 235
1965359S09101 1966 124 SI WA CAROL-DAISY 1965-12-27 00:00:00 TS -11.1865 95.8416 main 1078 1078 O_____P__OP___ jtwc_sh SH081966 -11.3000 95.7000 20 -1 -11.2977 95.7530 998 -11.3000 95.7000 TC 20 -11.3076 95.6383 1 18 10 235
1965359S09101 1966 124 SI WA CAROL-DAISY 1965-12-27 01:00:00 TS -11.2879 95.6946 998 bom main 1094 1094 P_____O__PP___ SH081966 -11.4052 95.5640 19 -1 -11.4000 95.6000 998 -11.4052 95.5640 TC 19 -11.4095 95.4974 1 17 11 235
1965359S09101 1966 124 SI WA CAROL-DAISY 1965-12-27 03:00:00 TS -11.4949 95.3978 main 1133 1133 P_____P__PP___ SH081966 -11.6150 95.2925 17 -1 -11.6086 95.2693 998 -11.6150 95.2925 TC 17 -11.6064 95.2274 1 15 11 235
1965359S09101 1966 124 SI WA CAROL-DAISY 1965-12-27 04:00:00 TS -11.5962 95.2511 998 bom main 1148 1148 P_____O__PO___ SH081966 -11.7158 95.1588 16 -1 -11.7000 95.1000 998 -11.7158 95.1588 TC 16 -11.7000 95.1000 1 15 10 235
1965359S09101 1966 124 SI WA CAROL-DAISY 1965-12-27 06:00:00 TS -11.7867 94.9638 main 1187 1187 O_____P__OP___ jtwc_sh SH081966 -11.9000 94.9000 15 -1 -11.8388 94.7430 997 -11.9000 94.9000 TC 15 -11.8754 94.8626 1 15 10 236
1965359S09101 1966 124 SI WA CAROL-DAISY 1965-12-27 07:00:00 TS -11.8767 94.8298 997 bom main 1210 1210 P_____O__PP___ SH081966 -11.9755 94.7671 15 -1 -11.9000 94.6000 997 -11.9803 94.7766 TC 15 -11.9577 94.7518 1 16 9 234
1965359S09101 1966 124 SI WA CAROL-DAISY 1965-12-27 09:00:00 TS -12.0441 94.5969 main 1233 1233 P_____P__PP___ SH081966 -12.1075 94.5124 15 -1 -12.0307 94.4509 997 -12.1201 94.5400 TC 15 -12.1134 94.5435 1 17 8 233
1965359S09101 1966 124 SI WA CAROL-DAISY 1965-12-27 10:00:00 TS -12.1242 94.4937 997 bom main 1249 1249 P_____O__PP___ SH081966 -12.1696 94.3962 15 -1 -12.1000 94.4000 997 -12.1825 94.4255 TC 15 -12.1874 94.4450 1 17 8 230
1965359S09101 1966 124 SI WA CAROL-DAISY 1965-12-27 12:00:00 TS -12.2912 94.2925 main 1280 1280 O_____P__OP___ jtwc_sh SH081966 -12.3000 94.2000 15 -1 -12.2630 94.2371 997 -12.3000 94.2000 TC 15 -12.3296 94.2566 1 18 7 226
1965359S09101 1966 124 SI WA CAROL-DAISY 1965-12-27 15:00:00 TS -12.5395 94.0472 main 1319 1319 P_____P___P___ SH081966 -12.5424 94.0274 -1 -12.5213 93.9787 997 TC -12.5333 93.9879 1 19 7 223
1965359S09101 1966 124 SI WA CAROL-DAISY 1965-12-27 16:00:00 TS -12.6187 93.9767 998 bom main 1327 1327 P_____O___O___ SH081966 -12.6278 93.9861 -1 -12.6000 93.9000 998 TC -12.6000 93.9000 1 20 6 220
1965359S09101 1966 124 SI WA CAROL-DAISY 1965-12-27 18:00:00 TS -12.7698 93.8479 main 1358 1358 O_____P_______ jtwc_sh SH071966 -12.8000 93.9000 -1 -12.7351 93.7649 998 1 6 220
1965359S09101 1966 124 SI WA CAROL-DAISY 1965-12-27 19:00:00 TS -12.8448 93.7839 999 bom main 1358 1358 P_____O_______ SH071966 -12.8859 93.8495 -1 -12.8000 93.7000 999 1 6 219
1965359S09101 1966 124 SI WA CAROL-DAISY 1965-12-27 21:00:00 TS -12.9993 93.6592 main 1382 1382 P_____P_______ SH071966 -13.0574 93.7374 -1 -12.9333 93.5667 999 1 6 216
1965359S09101 1966 124 SI WA CAROL-DAISY 1965-12-27 22:00:00 TS -13.0862 93.6038 1000 bom main 1397 1397 P_____O_______ SH071966 -13.1411 93.6703 -1 -13.0000 93.5000 1000 1 6 217
1965359S09101 1966 124 SI WA CAROL-DAISY 1965-12-28 00:00:00 TS -13.2519 93.4665 main 1421 1421 O_____P_______ jtwc_sh SH071966 -13.3000 93.5000 -1 -13.1333 93.3667 1000 1 7 219
1965359S09101 1966 124 SI WA CAROL-DAISY 1965-12-28 01:00:00 NR -13.3527 93.3760 1001 bom main 1437 1437 P_____O_______ SH071966 -13.3724 93.3869 -1 -13.2000 93.3000 1001 1 8 232
1965359S09101 1966 124 SI WA CAROL-DAISY 1965-12-28 03:00:00 NR -13.5071 93.1271 main 1467 1467 P_____________ SH071966 -13.5076 93.1225 -1 1 9 242
1965359S09101 1966 124 SI WA CAROL-DAISY 1965-12-28 06:00:00 NR -13.7003 92.7138 main 1507 1507 O_____________ jtwc_sh SH071966 -13.7000 92.7000 -1 9 244
1965359S09101 1966 124 SI WA CAROL-DAISY 1965-12-28 09:00:00 NR -13.8933 92.3274 main 1547 1547 P_____________ SH071966 -13.8925 92.3200 -1 8 240
1965359S09101 1966 124 SI WA CAROL-DAISY 1965-12-28 12:00:00 NR -14.1000 92.0000 main 1582 1582 O_____________ jtwc_sh SH071966 -14.1000 92.0000 -1 7 231
1965359S09101 1966 124 SI WA CAROL-DAISY 1965-12-28 15:00:00 NR -14.3351 91.7603 main 1613 1613 P_____________ SH071966 -14.3424 91.7625 -1 6 219
1965359S09101 1966 124 SI WA CAROL-DAISY 1965-12-28 18:00:00 NR -14.5873 91.5975 main 1652 1652 O_____________ jtwc_sh SH071966 -14.6000 91.6000 -1 6 208
1965359S09101 1966 124 SI WA CAROL-DAISY 1965-12-28 21:00:00 NR -14.8433 91.4859 main 1677 1677 P_____________ SH071966 -14.8525 91.4875 -1 6 200
1965359S09101 1966 124 SI WA CAROL-DAISY 1965-12-29 00:00:00 NR -15.1000 91.4000 main 1712 O_____________ jtwc_sh SH071966 -15.1000 91.4000 -1 5 197

About IBTrACS Database

This database is a web-friendly format of International Best Track Archive for Climate Stewardship (IBTrACS), a global best track data archive curated by NOAA dating back to 1842.

Updated: 2021-11-26